Time;durP1;ratioP1;P1;durP2;ratioP2;P2;SDS_P1;SDS_P2;PMS_P1;PMS_P2;Temp;Humidity;BMP_temperature;BMP_pressure;BME280_temperature;BME280_humidity;BME280_pressure;Samples;Min_cycle;Max_cycle;Signal;HPM_P1;HPM_P2
2022/04/03 00:00:41;;;;;;;7.20;4.75;;;;;;;9.13;100.00;99297.80;1684185;85;21081;-82
2022/04/03 00:03:10;;;;;;;9.05;4.80;;;;;;;9.16;100.00;99303.98;1684271;85;21019;-79
2022/04/03 00:05:45;;;;;;;4.92;4.42;;;;;;;9.20;100.00;99290.25;1684699;84;21484;-78
2022/04/03 00:08:41;;;;;;;8.55;5.03;;;;;;;9.23;100.00;99286.89;1683747;84;21083;-84
2022/04/03 00:11:14;;;;;;;4.75;4.33;;;;;;;9.27;100.00;99293.92;1684151;84;21593;-78
2022/04/03 00:13:49;;;;;;;5.78;4.47;;;;;;;9.24;100.00;99299.41;1684298;85;22254;-78
2022/04/03 00:16:57;;;;;;;6.35;4.55;;;;;;;9.19;100.00;99302.42;1684407;85;21100;-79
2022/04/03 00:19:31;;;;;;;9.28;4.42;;;;;;;9.18;100.00;99301.25;1684536;85;21139;-88
2022/04/03 00:22:01;;;;;;;7.22;4.10;;;;;;;9.19;100.00;99301.59;1684625;85;22001;-79
2022/04/03 00:24:30;;;;;;;4.53;4.12;;;;;;;9.20;100.00;99291.55;1684802;85;21543;-78
2022/04/03 00:30:43;;;;;;;8.13;4.45;;;;;;;9.07;100.00;99290.07;1684830;85;21712;-86
2022/04/03 00:33:12;;;;;;;16.60;5.40;;;;;;;8.93;100.00;99300.87;1684375;84;20967;-80
2022/04/03 00:39:16;;;;;;;10.68;4.65;;;;;;;8.95;100.00;99306.73;1656474;85;21654;-78
2022/04/03 00:41:47;;;;;;;11.03;4.83;;;;;;;8.98;100.00;99308.58;1643424;86;21714;-79
2022/04/03 00:44:21;;;;;;;9.13;5.30;;;;;;;9.00;100.00;99310.56;1650337;86;21138;-88
2022/04/03 00:46:51;;;;;;;12.30;5.62;;;;;;;9.00;100.00;99326.14;1642771;87;21541;-79
2022/04/03 00:49:18;;;;;;;12.95;6.17;;;;;;;8.97;100.00;99325.59;1650318;86;21127;-83
2022/04/03 00:51:45;;;;;;;23.47;6.67;;;;;;;8.99;100.00;99319.80;1643249;86;21047;-79
2022/04/03 00:57:37;;;;;;;5.37;4.87;;;;;;;8.94;100.00;99326.69;1642777;86;21525;-79
2022/04/03 01:00:06;;;;;;;6.72;5.28;;;;;;;8.92;100.00;99331.69;1650081;86;21030;-78
2022/04/03 01:02:35;;;;;;;16.73;6.37;;;;;;;8.92;100.00;99332.49;1626555;87;21842;-78
2022/04/03 01:05:04;;;;;;;16.55;5.70;;;;;;;8.95;100.00;99339.18;1642851;86;21596;-79
2022/04/03 01:07:34;;;;;;;8.40;5.70;;;;;;;8.97;100.00;99332.09;1650193;86;21038;-79
2022/04/03 01:10:06;;;;;;;8.58;5.85;;;;;;;8.96;100.00;99329.14;1627193;87;21627;-79
2022/04/03 01:12:44;;;;;;;15.83;6.05;;;;;;;8.92;100.00;99336.88;1649978;87;21175;-78
2022/04/03 01:15:54;;;;;;;6.65;5.35;;;;;;;8.86;100.00;99345.19;1643031;87;21815;-78
2022/04/03 01:18:24;;;;;;;7.53;5.60;;;;;;;8.77;100.00;99339.84;1649775;87;21545;-78
2022/04/03 01:20:52;;;;;;;7.50;5.42;;;;;;;8.72;100.00;99342.03;1643249;86;21015;-78
2022/04/03 01:23:22;;;;;;;7.65;5.22;;;;;;;8.72;100.00;99329.55;1649538;86;21078;-78
2022/04/03 01:25:49;;;;;;;11.33;5.95;;;;;;;8.70;100.00;99324.97;1643149;86;21177;-78
2022/04/03 01:28:16;;;;;;;10.82;5.75;;;;;;;8.66;100.00;99320.52;1649927;86;21542;-77
2022/04/03 01:30:45;;;;;;;7.60;5.80;;;;;;;8.62;100.00;99325.63;1651000;86;21551;-78
2022/04/03 01:33:14;;;;;;;6.35;5.58;;;;;;;8.57;100.00;99329.11;1656315;86;21104;-77
2022/04/03 01:36:11;;;;;;;9.78;5.90;;;;;;;8.52;100.00;99326.91;1656737;86;21050;-83
2022/04/03 01:38:39;;;;;;;11.83;6.12;;;;;;;8.47;100.00;99330.39;1656722;86;21095;-78
2022/04/03 01:41:09;;;;;;;8.60;5.62;;;;;;;8.46;100.00;99334.72;1656898;86;21567;-79
2022/04/03 01:43:36;;;;;;;6.12;5.47;;;;;;;8.46;100.00;99326.93;1656847;86;21110;-78
2022/04/03 01:46:04;;;;;;;6.12;5.22;;;;;;;8.42;100.00;99329.92;1630625;86;21106;-80
2022/04/03 01:48:34;;;;;;;6.03;5.40;;;;;;;8.38;100.00;99315.10;1656333;86;21046;-79
2022/04/03 01:51:01;;;;;;;6.97;5.87;;;;;;;8.30;100.00;99308.46;1656407;86;21719;-78
2022/04/03 01:53:36;;;;;;;6.83;5.28;;;;;;;8.20;100.00;99310.58;1656189;86;21186;-79
2022/04/03 01:56:08;;;;;;;6.05;5.42;;;;;;;8.17;100.00;99313.42;1656670;86;21638;-79
2022/04/03 01:59:13;;;;;;;7.45;5.75;;;;;;;8.18;100.00;99321.55;1657027;86;20990;-78
2022/04/03 02:02:11;;;;;;;6.33;5.35;;;;;;;8.20;100.00;99320.11;1656581;86;21089;-79
2022/04/03 02:04:44;;;;;;;8.60;6.95;;;;;;;8.16;100.00;99316.96;1656385;86;21097;-78
2022/04/03 02:07:12;;;;;;;10.20;6.28;;;;;;;8.15;100.00;99325.69;1655870;85;22008;-83
2022/04/03 02:10:12;;;;;;;7.37;5.45;;;;;;;8.12;100.00;99327.72;1643170;86;21060;-80
2022/04/03 02:13:19;;;;;;;8.20;5.78;;;;;;;8.10;100.00;99333.51;1650379;86;21023;-79
2022/04/03 02:15:46;;;;;;;6.35;4.90;;;;;;;8.10;100.00;99336.10;1643473;85;21067;-80
2022/04/03 02:18:54;;;;;;;4.80;4.20;;;;;;;8.05;100.00;99342.52;1650069;86;21948;-78
2022/04/03 02:21:23;;;;;;;4.05;3.65;;;;;;;8.01;100.00;99341.12;1643564;87;21845;-79
2022/04/03 02:23:52;;;;;;;6.20;4.70;;;;;;;7.95;100.00;99335.65;1650657;86;21033;-79
2022/04/03 02:26:47;;;;;;;4.15;3.75;;;;;;;7.85;100.00;99341.61;1643695;86;21091;-79
2022/04/03 02:29:51;;;;;;;5.53;3.85;;;;;;;7.79;100.00;99348.61;1650618;86;21662;-81
2022/04/03 02:36:28;;;;;;;8.93;4.40;;;;;;;7.80;100.00;99350.70;1631185;88;21587;-82
2022/04/03 02:39:00;;;;;;;4.15;3.75;;;;;;;7.83;100.00;99346.58;1630932;87;21042;-79
2022/04/03 02:45:15;;;;;;;5.47;3.30;;;;;;;7.88;100.00;99342.66;1630897;88;21141;-78
2022/04/03 02:51:09;;;;;;;7.15;3.60;;;;;;;7.85;100.00;99358.45;1630984;87;21228;-79
2022/04/03 02:54:22;;;;;;;12.75;3.67;;;;;;;7.87;100.00;99360.45;1630832;87;21046;-80
2022/04/03 02:56:59;;;;;;;5.83;3.12;;;;;;;7.89;100.00;99361.12;1630590;88;21063;-80
2022/04/03 02:59:34;;;;;;;9.05;3.40;;;;;;;7.91;100.00;99364.90;1630915;87;21129;-80
2022/04/03 03:02:05;;;;;;;11.97;3.30;;;;;;;7.95;100.00;99370.16;1631558;88;21154;-80
2022/04/03 03:04:35;;;;;;;13.62;3.75;;;;;;;7.99;100.00;99359.05;1631093;87;21132;-80
2022/04/03 03:10:34;;;;;;;13.10;3.52;;;;;;;8.09;100.00;99337.08;1630175;87;21061;-81
2022/04/03 03:13:08;;;;;;;8.55;3.42;;;;;;;8.16;100.00;99345.98;1630616;88;21076;-81
2022/04/03 03:19:41;;;;;;;4.80;3.20;;;;;;;8.23;100.00;99354.03;1631224;88;21881;-80
2022/04/03 03:22:40;;;;;;;9.85;3.27;;;;;;;8.29;100.00;99361.31;1631373;87;21667;-79
2022/04/03 03:25:53;;;;;;;4.92;3.08;;;;;;;8.25;100.00;99360.75;1631177;88;21065;-80
2022/04/03 03:28:22;;;;;;;3.80;3.37;;;;;;;8.10;100.00;99361.58;1631047;88;21039;-79
2022/04/03 03:35:36;;;;;;;4.40;3.85;;;;;;;7.84;100.00;99363.77;1631228;87;21235;-80
2022/04/03 03:38:05;;;;;;;4.78;3.70;;;;;;;7.75;100.00;99357.57;1630525;88;20994;-79
2022/04/03 03:40:34;;;;;;;5.08;3.52;;;;;;;7.68;100.00;99357.28;1630635;87;21042;-79
2022/04/03 03:43:09;;;;;;;3.70;3.27;;;;;;;7.66;100.00;99356.58;1631203;88;21070;-80
2022/04/03 03:50:17;;;;;;;4.42;3.80;;;;;;;7.63;100.00;99354.72;1630276;88;21104;-80
2022/04/03 03:53:34;;;;;;;5.45;3.60;;;;;;;7.61;100.00;99353.53;1630944;88;21065;-79
2022/04/03 03:56:05;;;;;;;4.72;3.40;;;;;;;7.65;100.00;99352.83;1639188;86;21626;-83
2022/04/03 04:05:46;;;;;;;4.83;4.10;;;;;;;7.62;100.00;99358.25;1657195;86;21298;-80
2022/04/03 04:08:16;;;;;;;3.75;3.17;;;;;;;7.60;100.00;99348.03;1657044;86;21089;-79
2022/04/03 04:11:22;;;;;;;5.17;3.70;;;;;;;7.58;100.00;99347.33;1657355;86;25656;-83
2022/04/03 04:13:51;;;;;;;5.40;3.80;;;;;;;7.54;100.00;99349.34;1656928;86;21093;-79
2022/04/03 04:20:43;;;;;;;4.47;3.80;;;;;;;7.56;100.00;99350.05;1657123;86;21090;-80
2022/04/03 04:23:19;;;;;;;5.10;4.20;;;;;;;7.61;100.00;99351.42;1657234;86;21066;-79
2022/04/03 04:25:47;;;;;;;4.25;3.80;;;;;;;7.62;100.00;99351.78;1616235;88;21878;-79
2022/04/03 04:28:51;;;;;;;5.50;3.70;;;;;;;7.65;100.00;99355.42;1616201;88;21150;-79
2022/04/03 04:31:22;;;;;;;5.12;4.12;;;;;;;7.68;100.00;99356.44;1657308;86;21591;-79
2022/04/03 04:34:18;;;;;;;;;;;;;;;7.69;100.00;99349.83;1659474;86;21192;-80
2022/04/03 04:40:46;;;;;;;5.30;4.47;;;;;;;7.73;100.00;99350.42;1652907;86;21120;-80
2022/04/03 04:43:16;;;;;;;6.08;4.72;;;;;;;7.70;100.00;99351.96;1657520;86;21560;-79
2022/04/03 04:45:43;;;;;;;7.55;4.50;;;;;;;7.69;100.00;99351.61;1651768;86;22108;-80
2022/04/03 04:48:51;;;;;;;5.12;4.25;;;;;;;7.68;100.00;99352.09;1655613;86;21618;-83
2022/04/03 04:51:40;;;;;;;10.38;4.90;;;;;;;7.68;100.00;99357.73;1655518;86;21088;-79
2022/04/03 04:54:09;;;;;;;6.08;4.70;;;;;;;7.65;100.00;99364.48;1655614;86;21524;-79
2022/04/03 04:56:40;;;;;;;5.70;4.60;;;;;;;7.58;100.00;99374.04;1654285;86;21129;-80
2022/04/03 04:59:11;;;;;;;7.00;4.90;;;;;;;7.50;100.00;99379.03;1655322;86;21674;-79
2022/04/03 05:01:41;;;;;;;8.65;4.87;;;;;;;7.47;100.00;99375.41;1656583;86;21133;-79
2022/04/03 05:04:10;;;;;;;11.97;5.75;;;;;;;7.47;100.00;99372.82;1656583;86;21536;-79
2022/04/03 05:06:44;;;;;;;8.53;5.22;;;;;;;7.47;100.00;99379.75;1656917;86;21584;-78
2022/04/03 05:09:15;;;;;;;5.90;4.70;;;;;;;7.46;100.00;99377.66;1657187;86;21550;-82
2022/04/03 05:12:18;;;;;;;9.70;4.90;;;;;;;7.49;100.00;99382.56;1657105;86;21117;-78
2022/04/03 05:14:49;;;;;;;5.78;5.05;;;;;;;7.49;100.00;99390.81;1656888;86;21141;-87
2022/04/03 05:17:18;;;;;;;5.45;4.87;;;;;;;7.47;100.00;99384.48;1634156;86;21082;-80
2022/04/03 05:19:47;;;;;;;6.60;5.60;;;;;;;7.49;100.00;99383.05;1605761;88;21145;-79
2022/04/03 05:22:14;;;;;;;6.42;5.65;;;;;;;7.54;100.00;99374.41;1636757;86;21074;-79
2022/04/03 05:25:11;;;;;;;6.05;5.30;;;;;;;7.55;100.00;99369.13;1634727;86;21237;-82
2022/04/03 05:27:39;;;;;;;7.00;5.95;;;;;;;7.55;100.00;99370.88;1645897;85;21547;-81
2022/04/03 05:30:09;;;;;;;5.50;4.90;;;;;;;7.54;100.00;99375.25;1638094;86;21724;-84
2022/04/03 05:32:44;;;;;;;8.93;5.10;;;;;;;7.57;100.00;99376.77;1628837;86;21089;-78
2022/04/03 05:35:14;;;;;;;5.20;4.70;;;;;;;7.63;100.00;99370.27;1618696;87;21050;-79
2022/04/03 05:38:13;;;;;;;5.53;5.03;;;;;;;7.64;100.00;99362.84;1618615;88;21653;-80
2022/04/03 05:41:41;;;;;;;7.65;4.95;;;;;;;7.63;100.00;99356.02;1618111;87;21557;-79
2022/04/03 05:48:45;;;;;;;6.35;5.40;;;;;;;7.61;100.00;99379.92;1618742;88;21087;-79
2022/04/03 05:56:21;;;;;;;6.37;5.37;;;;;;;7.54;100.00;99380.89;1630407;88;21526;-79
2022/04/03 05:58:50;;;;;;;7.58;5.97;;;;;;;7.51;100.00;99374.20;1652128;86;22469;-81
2022/04/03 06:01:19;;;;;;;7.53;6.00;;;;;;;7.53;100.00;99377.98;1655735;86;21113;-79
2022/04/03 06:03:50;;;;;;;13.45;6.35;;;;;;;7.52;100.00;99381.02;1656733;86;21143;-80
2022/04/03 06:06:23;;;;;;;7.55;6.03;;;;;;;7.53;100.00;99381.86;1645927;86;21114;-81
2022/04/03 06:08:55;;;;;;;15.43;6.55;;;;;;;7.55;100.00;99379.95;1652947;85;21058;-80
2022/04/03 06:11:24;;;;;;;15.55;10.43;;;;;;;7.54;100.00;99391.25;1655642;86;21236;-80
2022/04/03 06:13:53;;;;;;;7.92;6.75;;;;;;;7.60;100.00;99381.70;1656184;86;21078;-78
2022/04/03 06:16:21;;;;;;;62.90;9.90;;;;;;;7.83;100.00;99386.27;1656765;86;21125;-79
2022/04/03 06:18:52;;;;;;;23.35;8.40;;;;;;;7.92;100.00;99398.11;1623310;86;21125;-87
2022/04/03 06:21:20;;;;;;;27.52;7.72;;;;;;;8.05;100.00;99393.56;1646133;86;21065;-82
2022/04/03 06:23:47;;;;;;;23.47;7.80;;;;;;;8.11;100.00;99390.90;1656287;86;21134;-81
2022/04/03 06:26:15;;;;;;;27.22;7.72;;;;;;;8.15;100.00;99388.41;1656033;86;21587;-80
2022/04/03 06:28:43;;;;;;;10.03;7.35;;;;;;;8.09;100.00;99386.34;1631581;85;21089;-80
2022/04/03 06:31:52;;;;;;;9.05;6.80;;;;;;;7.99;100.00;99382.38;1639664;86;21559;-80
2022/04/03 06:34:21;;;;;;;9.93;6.92;;;;;;;7.85;100.00;99388.26;1650232;86;21066;-81
2022/04/03 06:36:49;;;;;;;19.73;6.87;;;;;;;7.72;100.00;99391.53;1656132;86;21214;-80
2022/04/03 06:39:19;;;;;;;35.92;9.30;;;;;;;7.72;100.00;99395.42;1644848;85;21140;-82
2022/04/03 06:41:47;;;;;;;21.97;7.65;;;;;;;8.01;100.00;99399.45;1649351;86;21081;-82
2022/04/03 06:44:16;;;;;;;15.32;8.53;;;;;;;8.29;100.00;99391.14;1652601;86;21610;-81
2022/04/03 06:46:43;;;;;;;10.98;7.92;;;;;;;8.50;100.00;99383.30;1650631;86;21089;-83
2022/04/03 06:49:11;;;;;;;44.10;9.00;;;;;;;8.66;100.00;99386.20;1632323;86;21061;-80
2022/04/03 06:51:38;;;;;;;14.07;8.38;;;;;;;8.73;100.00;99387.80;1649753;85;21085;-80
2022/04/03 06:54:06;;;;;;;21.62;8.43;;;;;;;8.81;100.00;99386.66;1644065;85;21162;-79
2022/04/03 06:56:37;;;;;;;23.65;8.33;;;;;;;8.74;100.00;99392.50;1604530;87;21030;-80
2022/04/03 06:59:04;;;;;;;18.45;8.40;;;;;;;8.67;100.00;99381.86;1638463;85;21062;-79
2022/04/03 07:01:31;;;;;;;16.23;8.65;;;;;;;8.76;100.00;99382.81;1669491;85;21257;-80
2022/04/03 07:03:58;;;;;;;17.67;8.73;;;;;;;8.91;100.00;99381.97;1657299;85;21485;-79
2022/04/03 07:06:26;;;;;;;15.72;7.87;;;;;;;9.01;100.00;99390.59;1656951;85;21109;-91
2022/04/03 07:08:54;;;;;;;13.10;8.53;;;;;;;8.98;100.00;99383.87;1667006;85;21061;-89
2022/04/03 07:11:21;;;;;;;11.28;8.53;;;;;;;8.94;100.00;99375.19;1684410;84;21610;-88
2022/04/03 07:13:54;;;;;;;15.78;9.13;;;;;;;8.90;100.00;99373.83;1645460;86;21217;-79
2022/04/03 07:16:26;;;;;;;23.57;9.45;;;;;;;8.83;100.00;99374.38;1601666;88;21579;-80
2022/04/03 07:18:53;;;;;;;12.95;8.70;;;;;;;8.97;100.00;99379.62;1617748;85;21038;-79
2022/04/03 07:21:22;;;;;;;17.02;9.05;;;;;;;9.25;100.00;99378.98;1672975;85;21086;-80
2022/04/03 07:23:50;;;;;;;19.75;9.58;;;;;;;9.46;100.00;99387.44;1670292;85;21075;-79
2022/04/03 07:26:17;;;;;;;17.12;9.25;;;;;;;9.48;100.00;99392.49;1677120;85;22265;-84
2022/04/03 07:28:45;;;;;;;14.00;8.98;;;;;;;9.58;100.00;99388.11;1661571;85;21378;-79
2022/04/03 07:31:13;;;;;;;14.63;8.73;;;;;;;9.67;100.00;99386.45;1652971;85;21709;-80
2022/04/03 07:33:40;;;;;;;12.03;8.73;;;;;;;9.59;100.00;99386.32;1670183;85;21079;-79
2022/04/03 07:36:08;;;;;;;11.63;7.95;;;;;;;9.49;100.00;99388.12;1675833;85;21122;-79
2022/04/03 07:38:36;;;;;;;21.10;9.10;;;;;;;9.55;100.00;99386.27;1670162;85;21162;-80
2022/04/03 07:41:03;;;;;;;12.93;8.43;;;;;;;9.55;100.00;99381.88;1676686;85;21020;-79
2022/04/03 07:43:32;;;;;;;11.45;8.05;;;;;;;9.63;100.00;99369.50;1669152;85;21102;-89
2022/04/03 07:46:00;;;;;;;11.28;8.65;;;;;;;9.85;100.00;99362.33;1677381;84;21051;-88
2022/04/03 07:48:27;;;;;;;11.85;9.28;;;;;;;9.98;100.00;99348.52;1662240;85;21129;-89
2022/04/03 07:50:54;;;;;;;15.10;9.88;;;;;;;9.85;100.00;99344.13;1651817;86;21042;-87
2022/04/03 07:53:23;;;;;;;21.23;9.48;;;;;;;9.62;100.00;99346.57;1656173;86;21073;-79
2022/04/03 07:55:51;;;;;;;20.70;9.40;;;;;;;9.53;100.00;99350.03;1656428;86;21116;-79
2022/04/03 07:58:20;;;;;;;11.22;8.95;;;;;;;9.68;100.00;99351.70;1655409;86;21074;-79
2022/04/03 08:00:47;;;;;;;11.05;8.78;;;;;;;9.86;100.00;99353.08;1656490;86;21582;-79
2022/04/03 08:03:19;;;;;;;21.75;10.70;;;;;;;10.07;100.00;99355.47;1655442;86;21117;-83
2022/04/03 08:05:47;;;;;;;16.73;9.00;;;;;;;10.16;100.00;99352.52;1656056;86;21081;-80
2022/04/03 08:08:16;;;;;;;13.98;8.83;;;;;;;10.24;100.00;99352.61;1655972;86;21712;-80
2022/04/03 08:10:44;;;;;;;17.35;9.30;;;;;;;10.35;100.00;99340.35;1656618;86;21137;-80
2022/04/03 08:13:12;;;;;;;32.85;9.98;;;;;;;10.38;100.00;99346.61;1656753;86;21034;-80
2022/04/03 08:15:39;;;;;;;19.48;8.60;;;;;;;10.41;100.00;99345.84;1656550;86;21373;-79
2022/04/03 08:18:07;;;;;;;14.03;9.10;;;;;;;10.53;100.00;99344.34;1656312;86;20974;-81
2022/04/03 08:20:35;;;;;;;13.62;8.38;;;;;;;10.57;100.00;99342.61;1656194;86;21103;-79
2022/04/03 08:23:05;;;;;;;16.82;8.78;;;;;;;10.45;100.00;99340.36;1656641;86;21540;-80
2022/04/03 08:25:35;;;;;;;10.58;9.25;;;;;;;10.27;100.00;99333.29;1655647;86;21077;-86
2022/04/03 08:28:03;;;;;;;15.00;8.95;;;;;;;10.09;100.00;99330.15;1656484;86;22043;-80
2022/04/03 08:30:34;;;;;;;10.20;8.98;;;;;;;9.91;100.00;99319.69;1656260;86;21551;-81
2022/04/03 08:33:04;;;;;;;15.35;10.55;;;;;;;9.82;100.00;99330.09;1656469;86;21130;-79
2022/04/03 08:35:38;;;;;;;32.75;12.43;;;;;;;9.73;100.00;99336.52;1656813;86;21552;-80
2022/04/03 08:38:03;;;;;;;15.03;11.85;;;;;;;9.72;100.00;99345.73;1654388;86;21082;-78
2022/04/03 08:40:33;;;;;;;27.15;12.30;;;;;;;9.88;100.00;99355.56;1578003;90;21171;-80
2022/04/03 08:43:02;;;;;;;15.85;11.05;;;;;;;10.07;100.00;99363.27;1656047;86;21474;-78
2022/04/03 08:45:31;;;;;;;30.40;11.48;;;;;;;10.17;100.00;99363.72;1652123;85;21071;-88
2022/04/03 08:48:01;;;;;;;20.57;10.43;;;;;;;10.25;100.00;99362.03;1645068;86;21124;-83
2022/04/03 08:50:56;;;;;;;17.55;10.40;;;;;;;10.36;100.00;99353.70;1656159;86;21155;-80
2022/04/03 08:53:31;;;;;;;12.78;9.85;;;;;;;10.36;100.00;99349.80;1653820;86;21185;-82
2022/04/03 08:55:59;;;;;;;21.45;10.40;;;;;;;10.26;100.00;99345.45;1652429;86;21038;-83
2022/04/03 08:58:27;;;;;;;20.88;10.25;;;;;;;10.18;100.00;99347.16;1630098;88;21073;-90
2022/04/03 09:00:56;;;;;;;14.45;10.32;;;;;;;10.20;100.00;99349.14;1631997;85;21116;-81
2022/04/03 09:03:26;;;;;;;11.85;8.98;;;;;;;10.22;100.00;99343.29;1677201;84;21084;-79
2022/04/03 09:06:15;;;;;;;31.57;10.50;;;;;;;10.14;100.00;99347.92;1684187;84;21855;-81
2022/04/03 09:08:44;;;;;;;14.15;12.40;;;;;;;10.05;100.00;99350.92;1684143;85;21065;-79
2022/04/03 09:11:13;;;;;;;14.73;12.33;;;;;;;10.14;100.00;99349.23;1657298;85;22862;-79
2022/04/03 09:13:43;;;;;;;14.25;12.75;;;;;;;10.09;100.00;99339.25;1684012;84;21086;-81
2022/04/03 09:16:12;;;;;;;16.73;13.00;;;;;;;9.97;100.00;99343.01;1684215;85;21516;-80
2022/04/03 09:18:48;;;;;;;15.32;12.68;;;;;;;9.72;100.00;99347.03;1684577;85;21832;-79
2022/04/03 09:21:26;;;;;;;19.25;13.08;;;;;;;9.47;100.00;99343.61;1684081;85;21112;-79
2022/04/03 09:24:11;;;;;;;24.27;12.82;;;;;;;9.44;100.00;99342.58;1659123;85;21026;-80
2022/04/03 09:26:42;;;;;;;21.45;14.65;;;;;;;9.41;100.00;99341.58;1670938;85;21061;-81
2022/04/03 09:29:16;;;;;;;14.63;13.03;;;;;;;9.43;100.00;99350.03;1620573;86;21602;-79
2022/04/03 09:31:46;;;;;;;19.73;14.20;;;;;;;9.48;100.00;99334.02;1656200;86;21259;-87
2022/04/03 09:34:20;;;;;;;38.08;15.90;;;;;;;9.56;100.00;99338.53;1655936;86;21133;-78
2022/04/03 09:37:00;;;;;;;20.77;14.10;;;;;;;9.70;100.00;99328.98;1655360;85;21085;-78
2022/04/03 09:39:30;;;;;;;33.67;17.17;;;;;;;9.94;100.00;99341.98;1655618;85;21112;-79
2022/04/03 09:42:12;;;;;;;23.32;15.90;;;;;;;10.10;100.00;99331.79;1629350;86;21113;-79
2022/04/03 09:44:43;;;;;;;18.85;14.33;;;;;;;10.23;100.00;99327.55;1659033;85;21213;-80
2022/04/03 09:47:30;;;;;;;15.70;13.13;;;;;;;10.35;100.00;99328.18;1675661;85;21030;-78
2022/04/03 09:50:04;;;;;;;14.65;13.13;;;;;;;10.47;100.00;99322.78;1652374;85;21094;-80
2022/04/03 09:52:51;;;;;;;27.37;15.30;;;;;;;10.60;100.00;99336.28;1649787;86;21078;-79
2022/04/03 09:55:23;;;;;;;18.55;16.05;;;;;;;10.69;100.00;99329.36;1652888;86;21141;-79
2022/04/03 09:58:03;;;;;;;22.73;16.00;;;;;;;10.75;100.00;99327.97;1655657;86;21313;-80
2022/04/03 10:00:32;;;;;;;23.38;15.70;;;;;;;10.78;100.00;99318.53;1656189;86;21315;-78
2022/04/03 10:03:05;;;;;;;25.50;16.27;;;;;;;10.76;100.00;99313.98;1656203;86;21131;-79
2022/04/03 10:05:34;;;;;;;18.27;15.95;;;;;;;10.72;100.00;99318.17;1656415;86;21033;-79
2022/04/03 10:08:05;;;;;;;20.43;16.52;;;;;;;10.69;100.00;99308.54;1637777;86;21049;-79
2022/04/03 10:10:35;;;;;;;;;;;;;;;10.49;100.00;99300.05;1597698;88;21217;-90
2022/04/03 10:13:06;;;;;;;20.97;17.43;;;;;;;10.28;100.00;99298.51;1619759;88;20171;-80
2022/04/03 10:15:34;;;;;;;19.98;17.70;;;;;;;10.05;100.00;99308.47;1619949;87;21050;-79
2022/04/03 10:18:03;;;;;;;50.05;18.23;;;;;;;10.01;100.00;99318.34;1619725;87;21114;-81
2022/04/03 10:20:36;;;;;;;23.22;17.73;;;;;;;9.98;100.00;99330.31;1620086;87;21137;-81
2022/04/03 10:23:11;;;;;;;30.77;18.15;;;;;;;10.01;100.00;99327.44;1619507;87;21190;-79
2022/04/03 10:25:44;;;;;;;28.92;16.95;;;;;;;10.07;100.00;99332.06;1626697;86;21090;-79
2022/04/03 10:28:13;;;;;;;20.77;17.85;;;;;;;10.15;100.00;99332.66;1650731;86;21536;-81
2022/04/03 10:30:45;;;;;;;27.20;18.73;;;;;;;10.22;100.00;99342.83;1650722;85;21050;-80
2022/04/03 10:33:24;;;;;;;20.32;17.48;;;;;;;10.16;100.00;99344.70;1649223;85;21058;-80
2022/04/03 10:36:13;;;;;;;21.15;17.75;;;;;;;10.01;100.00;99354.75;1655401;86;21161;-79
2022/04/03 10:38:59;;;;;;;24.65;16.87;;;;;;;9.87;100.00;99360.41;1655418;86;21025;-80
2022/04/03 10:41:33;;;;;;;18.07;15.78;;;;;;;9.67;100.00;99363.55;1655042;86;21063;-79
2022/04/03 10:44:23;;;;;;;19.57;16.57;;;;;;;9.50;100.00;99372.85;1656778;86;21064;-78
2022/04/03 10:47:07;;;;;;;18.07;16.17;;;;;;;9.38;100.00;99369.13;1630785;86;21030;-77
2022/04/03 10:49:43;;;;;;;19.80;15.75;;;;;;;9.19;100.00;99368.66;1656660;86;21109;-81
2022/04/03 10:52:25;;;;;;;22.10;17.40;;;;;;;8.97;100.00;99369.73;1652988;86;21527;-81
2022/04/03 10:54:58;;;;;;;20.75;17.62;;;;;;;8.79;100.00;99375.58;1655730;86;21026;-77
2022/04/03 10:57:45;;;;;;;25.05;17.98;;;;;;;8.63;100.00;99384.36;1656938;86;21602;-84
2022/04/03 11:00:18;;;;;;;21.87;17.82;;;;;;;8.48;100.00;99386.52;1656883;86;21073;-77
2022/04/03 11:03:00;;;;;;;56.37;19.00;;;;;;;8.40;100.00;99383.24;1656989;86;21058;-78
2022/04/03 11:05:33;;;;;;;31.50;19.05;;;;;;;8.40;100.00;99385.84;1656711;86;28264;-78
2022/04/03 11:08:06;;;;;;;40.45;19.17;;;;;;;8.53;100.00;99385.64;1656777;86;21061;-78
2022/04/03 11:10:59;;;;;;;44.73;18.77;;;;;;;8.53;100.00;99380.45;1657042;86;20992;-81
2022/04/03 11:13:35;;;;;;;62.08;20.27;;;;;;;8.64;100.00;99384.25;1655642;86;21108;-80
2022/04/03 11:16:10;;;;;;;79.22;19.85;;;;;;;8.75;100.00;99378.12;1630042;86;22208;-79
2022/04/03 11:18:47;;;;;;;35.03;18.82;;;;;;;8.90;100.00;99379.02;1656508;85;21045;-79
2022/04/03 11:21:26;;;;;;;47.67;18.85;;;;;;;9.04;100.00;99381.22;1655469;86;21029;-81
2022/04/03 11:24:10;;;;;;;62.13;19.50;;;;;;;9.09;100.00;99380.81;1654231;86;21065;-79
2022/04/03 11:26:41;;;;;;;40.52;18.20;;;;;;;9.26;100.00;99381.89;1655083;86;21105;-79
2022/04/03 11:29:11;;;;;;;45.92;18.60;;;;;;;9.40;100.00;99382.80;1656800;86;21071;-79
2022/04/03 11:31:39;;;;;;;30.20;17.92;;;;;;;9.43;100.00;99377.31;1656548;86;21176;-78
2022/04/03 11:34:06;;;;;;;20.60;16.87;;;;;;;9.41;100.00;99378.41;1651700;86;21556;-78
2022/04/03 11:36:34;;;;;;;24.50;16.97;;;;;;;9.25;100.00;99372.00;1615285;87;21419;-84
2022/04/03 11:39:06;;;;;;;28.15;17.42;;;;;;;9.08;100.00;99362.28;1656080;86;21069;-77
2022/04/03 11:41:35;;;;;;;47.20;19.35;;;;;;;9.11;100.00;99356.34;1653183;86;21607;-86
2022/04/03 11:44:15;;;;;;;21.42;16.97;;;;;;;9.23;100.00;99362.70;1615569;88;21138;-78
2022/04/03 11:46:46;;;;;;;33.38;17.50;;;;;;;9.39;100.00;99355.18;1656339;85;21089;-80
2022/04/03 11:49:26;;;;;;;25.80;18.50;;;;;;;9.43;100.00;99347.43;1655574;86;21062;-85
2022/04/03 11:51:57;;;;;;;26.23;17.00;;;;;;;9.53;100.00;99344.00;1655390;86;21071;-79
2022/04/03 11:54:25;;;;;;;24.23;17.17;;;;;;;9.64;100.00;99345.16;1655235;86;21166;-78
2022/04/03 11:57:02;;;;;;;30.72;18.05;;;;;;;9.60;100.00;99345.08;1654710;85;21133;-79
2022/04/03 11:59:37;;;;;;;43.65;18.37;;;;;;;9.47;100.00;99346.20;1653048;86;21102;-80
2022/04/03 12:02:15;;;;;;;26.05;17.65;;;;;;;9.46;100.00;99356.26;1655340;85;21066;-80
2022/04/03 12:04:45;;;;;;;21.95;16.48;;;;;;;9.50;100.00;99348.17;1630508;86;21049;-82
2022/04/03 12:07:53;;;;;;;16.82;14.65;;;;;;;9.36;100.00;99348.14;1630043;86;22467;-78
2022/04/03 12:13:55;;;;;;;13.83;11.45;;;;;;;8.42;100.00;99337.25;1630035;88;21069;-78
2022/04/03 12:16:37;;;;;;;12.07;10.78;;;;;;;8.04;100.00;99379.75;1630421;87;21113;-78
2022/04/03 12:19:10;;;;;;;12.98;10.60;;;;;;;7.86;100.00;99392.50;1629646;87;21097;-80
2022/04/03 12:21:45;;;;;;;16.35;13.00;;;;;;;7.82;100.00;99379.92;1629968;86;21145;-78
2022/04/03 12:24:16;;;;;;;16.67;12.73;;;;;;;7.85;100.00;99374.48;1629867;87;21057;-82
2022/04/03 12:27:01;;;;;;;13.28;11.55;;;;;;;7.81;100.00;99386.05;1630150;87;21139;-77
2022/04/03 12:29:35;;;;;;;15.93;12.15;;;;;;;7.69;100.00;99387.40;1630335;87;21698;-77
2022/04/03 12:32:39;;;;;;;13.95;11.33;;;;;;;7.56;100.00;99383.73;1598205;88;21159;-78
2022/04/03 12:35:11;;;;;;;14.68;10.93;;;;;;;7.43;100.00;99385.66;1616046;88;21154;-82
2022/04/03 12:37:42;;;;;;;13.83;11.88;;;;;;;7.32;100.00;99386.53;1615518;88;21094;-78
2022/04/03 12:40:12;;;;;;;13.62;11.95;;;;;;;7.21;100.00;99381.42;1615512;88;21624;-78
2022/04/03 12:42:45;;;;;;;15.63;11.85;;;;;;;7.09;100.00;99381.94;1615776;88;21088;-77
2022/04/03 12:45:23;;;;;;;14.47;11.83;;;;;;;7.00;100.00;99389.95;1615505;88;21282;-78
2022/04/03 12:47:58;;;;;;;15.78;12.33;;;;;;;6.92;100.00;99382.81;1615708;87;21318;-78
2022/04/03 12:50:54;;;;;;;14.70;11.78;;;;;;;6.86;100.00;99388.45;1615836;88;21585;-78
2022/04/03 13:04:35;;;;;;;7.75;6.87;;;;;;;6.22;100.00;99404.16;1630599;87;21115;-78
2022/04/03 13:07:43;;;;;;;8.75;7.75;;;;;;;5.97;100.00;99410.34;1630205;88;21081;-78
2022/04/03 13:17:42;;;;;;;8.45;7.55;;;;;;;5.62;100.00;99413.32;1657072;86;21045;-79
2022/04/03 13:25:06;;;;;;;10.85;8.63;;;;;;;5.59;100.00;99416.12;1637323;86;48835;-78
2022/04/03 13:32:00;;;;;;;10.55;8.70;;;;;;;5.57;100.00;99417.17;1657252;86;21082;-78
2022/04/03 13:38:57;;;;;;;9.38;7.97;;;;;;;5.58;100.00;99413.17;1656302;86;21082;-78